SXF weather

Berlin-Schönefeld Airport
Berlin, Brandenburg, Germany

Public forecast

Using degrees Celsius for public forecast. Weather courtesy of forecast.io.

Current aviation weather report (METAR) for Berlin-Schönefeld Airport

Retrieved 2019/10/19 00:20 UTC (22 minutes ago):

EDDB 190020Z 20006KT CAVOK 09/07 Q1011 NOSIG

Aviation forecast (TAF) for Berlin-Schönefeld Airport

Retrieved 2019-10-19 00:27 UTC (15 minutes ago):

TAF TAF EDDB 182300Z 1900/1924 21006KT CAVOK BECMG 1903/1906 15007KT